PATL/TLJ METAR and TAF weather

Enter ICAO airport designator
Station Type Date Time Source
PATL METAR 2018/12/13 20:55 UTC NOAA

PATL 132055Z 00000KT 10SM -SN FEW015 OVC050 M19/M20 A2934 RMK AO2A SLP973 LSR08 60000 53002


Station Type Date Time Source
PATL Decoded METAR 2018/12/13 20:55 UTC NOAA

Takotna, Tatalina LRRS Airport, AK, United States (PATL) 62-54N 155-59W
Dec 13, 2018 - 03:55 PM EST / 2018.12.13 2055 UTC
Wind: Calm:0
Visibility: 10 mile(s):0
Sky conditions: overcast
Weather: light snow
Temperature: -2 F (-19 C)
Dew Point: -4 F (-20 C)
Relative Humidity: 91%
Pressure (altimeter): 29.34 in. Hg (993 hPa)
Pressure tendency: 0.01 inches (0.2 hPa) higher than three hours ago
ob: PATL 132055Z 00000KT 10SM -SN FEW015 OVC050 M19/M20 A2934 RMK AO2A SLP973 LSR08 60000 53002
cycle: 21

Station Type Date Time Source
PATL TAF 2012/01/12 14:06 UTC NOAA

TAF PATL 1214/1320 VRB06KT 9999 FEW050 SCT110 QNH2998INS TM26/1300Z TM32/1315Z


Example: see airport list